Time;durP1;ratioP1;P1;durP2;ratioP2;P2;SDS_P1;SDS_P2;PMS_P1;PMS_P2;Temp;Humidity;BMP_temperature;BMP_pressure;BME280_temperature;BME280_humidity;BME280_pressure;Samples;Min_cycle;Max_cycle;Signal;HPM_P1;HPM_P2
2022/05/08 00:01:46;;;;;;;13.10;5.90;;;;;;;;;;5007891;28;20046;-80
2022/05/08 00:04:12;;;;;;;12.00;5.93;;;;;;;;;;5003582;28;20069;-77
2022/05/08 00:06:38;;;;;;;14.38;5.55;;;;;;;;;;5007412;28;20959;-79
2022/05/08 00:09:05;;;;;;;11.52;6.22;;;;;;;;;;5005935;28;20054;-79
2022/05/08 00:11:31;;;;;;;11.95;5.95;;;;;;;;;;5006467;28;20129;-78
2022/05/08 00:13:57;;;;;;;13.80;6.60;;;;;;;;;;5023042;28;20054;-78
2022/05/08 00:16:24;;;;;;;14.02;5.88;;;;;;;;;;5013378;28;20150;-80
2022/05/08 00:18:50;;;;;;;14.30;6.40;;;;;;;;;;5008906;28;20035;-80
2022/05/08 00:21:17;;;;;;;15.25;6.03;;;;;;;;;;5005645;28;20058;-78
2022/05/08 00:23:43;;;;;;;16.42;6.63;;;;;;;;;;5004789;28;20095;-78
2022/05/08 00:26:09;;;;;;;13.13;5.82;;;;;;;;;;5005338;28;20050;-77
2022/05/08 00:28:36;;;;;;;16.33;6.70;;;;;;;;;;5002857;28;20058;-80
2022/05/08 00:31:02;;;;;;;12.40;5.78;;;;;;;;;;5005155;28;20615;-80
2022/05/08 00:33:29;;;;;;;14.25;6.10;;;;;;;;;;5001399;28;20149;-77
2022/05/08 00:35:55;;;;;;;11.18;6.22;;;;;;;;;;5005026;28;20091;-80
2022/05/08 00:38:21;;;;;;;14.88;5.45;;;;;;;;;;5003260;28;20050;-77
2022/05/08 00:40:48;;;;;;;13.18;5.22;;;;;;;;;;5004952;28;20065;-77
2022/05/08 00:43:25;;;;;;;14.00;6.13;;;;;;;;;;5019628;28;20050;-79
2022/05/08 00:45:51;;;;;;;17.75;5.75;;;;;;;;;;5003246;28;20145;-78
2022/05/08 00:48:17;;;;;;;15.35;5.80;;;;;;;;;;5002927;28;20181;-79
2022/05/08 00:50:44;;;;;;;11.05;5.25;;;;;;;;;;5007024;28;20141;-80
2022/05/08 00:53:10;;;;;;;17.52;6.45;;;;;;;;;;5005526;28;20870;-80
2022/05/08 00:55:36;;;;;;;16.10;5.70;;;;;;;;;;5005887;28;20054;-77
2022/05/08 00:58:03;;;;;;;18.73;5.90;;;;;;;;;;5004185;28;20065;-77
2022/05/08 01:00:29;;;;;;;17.10;5.93;;;;;;;;;;5006130;28;20129;-79
2022/05/08 01:02:59;;;;;;;17.17;6.38;;;;;;;;;;5005239;28;20169;-79
2022/05/08 01:05:25;;;;;;;14.48;5.78;;;;;;;;;;5022310;28;20062;-77
2022/05/08 01:07:51;;;;;;;17.38;5.57;;;;;;;;;;5022157;28;20101;-77
2022/05/08 01:10:18;;;;;;;24.92;6.13;;;;;;;;;;5006490;28;20138;-77
2022/05/08 01:12:44;;;;;;;19.63;5.65;;;;;;;;;;5006773;28;20050;-79
2022/05/08 01:15:11;;;;;;;21.05;6.22;;;;;;;;;;5004223;28;20995;-81
2022/05/08 01:17:37;;;;;;;18.25;5.95;;;;;;;;;;5005409;28;21103;-80
2022/05/08 01:20:04;;;;;;;14.75;5.10;;;;;;;;;;5005022;28;20156;-80
2022/05/08 01:22:31;;;;;;;18.27;5.63;;;;;;;;;;5005932;28;20066;-78
2022/05/08 01:24:58;;;;;;;19.67;5.63;;;;;;;;;;5006619;28;20058;-80
2022/05/08 01:27:25;;;;;;;16.83;4.82;;;;;;;;;;5006386;28;20043;-79
2022/05/08 01:29:51;;;;;;;15.93;4.60;;;;;;;;;;5020187;28;20070;-78
2022/05/08 01:32:17;;;;;;;14.55;4.93;;;;;;;;;;5004320;28;20133;-79
2022/05/08 01:34:44;;;;;;;16.92;4.65;;;;;;;;;;5006466;28;20082;-80
2022/05/08 01:37:10;;;;;;;17.20;5.10;;;;;;;;;;5003947;28;20114;-81
2022/05/08 01:39:36;;;;;;;27.00;4.40;;;;;;;;;;4991493;28;20056;-80
2022/05/08 01:42:06;;;;;;;17.98;4.45;;;;;;;;;;5005359;28;20110;-80
2022/05/08 01:44:32;;;;;;;17.05;4.28;;;;;;;;;;5006097;28;20046;-80
2022/05/08 01:49:44;;;;;;;21.27;5.20;;;;;;;;;;5007367;28;20062;-77
2022/05/08 01:52:10;;;;;;;18.50;3.90;;;;;;;;;;5005889;28;20063;-78
2022/05/08 01:54:36;;;;;;;19.50;4.28;;;;;;;;;;5005826;28;20054;-78
2022/05/08 01:57:02;;;;;;;16.55;4.13;;;;;;;;;;5003398;28;20149;-79
2022/05/08 01:59:29;;;;;;;17.30;4.10;;;;;;;;;;5006811;28;20078;-80
2022/05/08 02:01:56;;;;;;;22.50;4.28;;;;;;;;;;5003932;28;20050;-80
2022/05/08 02:04:22;;;;;;;19.63;4.00;;;;;;;;;;5004909;28;21220;-80
2022/05/08 02:06:49;;;;;;;18.80;3.60;;;;;;;;;;5001113;28;20059;-78
2022/05/08 02:09:16;;;;;;;19.75;3.88;;;;;;;;;;5005726;28;20572;-81
2022/05/08 02:11:42;;;;;;;17.17;3.60;;;;;;;;;;5004231;28;20060;-79
2022/05/08 02:14:08;;;;;;;27.13;4.20;;;;;;;;;;5001416;28;20057;-76
2022/05/08 02:16:34;;;;;;;20.67;3.63;;;;;;;;;;5007194;28;20050;-79
2022/05/08 02:19:01;;;;;;;25.02;5.32;;;;;;;;;;5005572;28;20062;-77
2022/05/08 02:21:27;;;;;;;22.05;3.72;;;;;;;;;;5006275;28;20062;-76
2022/05/08 02:23:54;;;;;;;20.40;3.33;;;;;;;;;;5001015;28;20098;-77
2022/05/08 02:26:20;;;;;;;13.82;3.35;;;;;;;;;;5003939;28;20112;-79
2022/05/08 02:28:47;;;;;;;13.65;3.20;;;;;;;;;;5002831;28;20137;-78
2022/05/08 02:31:13;;;;;;;13.48;3.70;;;;;;;;;;5003421;28;20065;-79
2022/05/08 02:33:40;;;;;;;18.95;3.42;;;;;;;;;;5004487;28;20113;-77
2022/05/08 02:36:06;;;;;;;17.17;3.17;;;;;;;;;;5001726;28;20153;-76
2022/05/08 02:38:33;;;;;;;20.17;3.50;;;;;;;;;;4986695;28;20051;-78
2022/05/08 02:41:00;;;;;;;18.60;3.35;;;;;;;;;;4996374;28;20058;-79
2022/05/08 02:43:26;;;;;;;23.42;3.72;;;;;;;;;;5004582;28;20122;-78
2022/05/08 02:45:52;;;;;;;20.13;3.63;;;;;;;;;;5003155;28;20050;-76
2022/05/08 02:48:19;;;;;;;16.65;2.90;;;;;;;;;;5004285;28;20074;-77
2022/05/08 02:50:47;;;;;;;18.80;3.75;;;;;;;;;;5021225;28;20082;-76
2022/05/08 02:53:14;;;;;;;14.60;3.38;;;;;;;;;;5021502;28;20098;-79
2022/05/08 02:58:34;;;;;;;20.45;3.00;;;;;;;;;;5009472;28;20050;-79
2022/05/08 03:01:02;;;;;;;21.40;3.80;;;;;;;;;;5007091;28;20054;-79
2022/05/08 03:03:28;;;;;;;20.67;3.20;;;;;;;;;;5008256;28;20082;-77
2022/05/08 03:05:54;;;;;;;13.80;3.15;;;;;;;;;;5006474;28;20050;-78
2022/05/08 03:08:21;;;;;;;24.23;3.72;;;;;;;;;;5007922;28;20058;-79
2022/05/08 03:13:35;;;;;;;24.48;4.55;;;;;;;;;;5007810;28;20054;-78
2022/05/08 03:16:05;;;;;;;19.27;3.90;;;;;;;;;;5005741;28;20141;-78
2022/05/08 03:18:32;;;;;;;24.15;3.95;;;;;;;;;;5008159;28;20620;-79
2022/05/08 03:20:58;;;;;;;18.83;3.33;;;;;;;;;;5009084;28;20211;-78
2022/05/08 03:23:25;;;;;;;20.08;4.38;;;;;;;;;;5006474;28;20100;-76
2022/05/08 03:25:51;;;;;;;17.08;3.40;;;;;;;;;;5006869;28;20058;-77
2022/05/08 03:28:17;;;;;;;21.73;4.13;;;;;;;;;;5010156;28;20066;-79
2022/05/08 03:30:44;;;;;;;14.02;2.97;;;;;;;;;;5007652;28;20105;-79
2022/05/08 03:33:11;;;;;;;21.70;3.70;;;;;;;;;;5015918;28;20058;-77
2022/05/08 03:35:38;;;;;;;13.95;3.38;;;;;;;;;;5012823;28;20507;-78
2022/05/08 03:38:05;;;;;;;17.77;3.15;;;;;;;;;;5007098;28;20034;-79
2022/05/08 03:40:35;;;;;;;16.88;3.33;;;;;;;;;;5002421;28;20125;-77
2022/05/08 03:43:01;;;;;;;19.95;3.80;;;;;;;;;;5009152;28;20101;-77
2022/05/08 03:45:28;;;;;;;19.38;3.47;;;;;;;;;;5005658;28;20911;-78
2022/05/08 03:47:55;;;;;;;18.30;4.22;;;;;;;;;;5017720;28;20144;-79
2022/05/08 03:50:22;;;;;;;14.85;3.40;;;;;;;;;;5018054;28;20832;-80
2022/05/08 03:52:48;;;;;;;19.77;3.53;;;;;;;;;;5003912;28;20062;-78
2022/05/08 03:55:15;;;;;;;19.63;3.67;;;;;;;;;;4996868;28;20062;-80
2022/05/08 03:57:42;;;;;;;12.32;3.00;;;;;;;;;;5006386;28;20078;-79
2022/05/08 04:00:09;;;;;;;14.38;3.53;;;;;;;;;;5004386;28;20069;-77
2022/05/08 04:02:35;;;;;;;15.55;3.22;;;;;;;;;;5007442;28;20068;-77
2022/05/08 04:05:03;;;;;;;17.58;4.28;;;;;;;;;;5013729;28;20085;-80
2022/05/08 04:07:30;;;;;;;15.40;3.78;;;;;;;;;;5013683;28;20145;-78
2022/05/08 04:09:56;;;;;;;17.13;3.40;;;;;;;;;;5018415;28;20054;-77
2022/05/08 04:12:23;;;;;;;14.68;4.07;;;;;;;;;;5015814;28;20903;-76
2022/05/08 04:14:50;;;;;;;18.00;3.70;;;;;;;;;;5010356;28;20054;-78
2022/05/08 04:17:16;;;;;;;15.45;3.63;;;;;;;;;;5004128;28;20055;-78
2022/05/08 04:19:46;;;;;;;15.75;3.42;;;;;;;;;;5008271;28;20069;-78
2022/05/08 04:24:58;;;;;;;16.40;3.15;;;;;;;;;;5010622;28;20065;-77
2022/05/08 04:27:24;;;;;;;17.27;3.42;;;;;;;;;;5014798;28;20064;-79
2022/05/08 04:29:51;;;;;;;15.07;3.78;;;;;;;;;;5021414;28;20829;-79
2022/05/08 04:32:17;;;;;;;21.02;3.72;;;;;;;;;;5012405;28;20116;-80
2022/05/08 04:34:43;;;;;;;18.15;3.53;;;;;;;;;;5003565;28;20046;-79
2022/05/08 04:37:10;;;;;;;16.15;2.85;;;;;;;;;;5007594;28;20117;-79
2022/05/08 04:39:36;;;;;;;12.00;3.17;;;;;;;;;;5035937;28;20152;-77
2022/05/08 04:42:03;;;;;;;12.40;3.38;;;;;;;;;;5023634;28;20686;-79
2022/05/08 04:44:29;;;;;;;15.13;3.17;;;;;;;;;;5021172;28;20137;-77
2022/05/08 04:46:55;;;;;;;17.48;3.25;;;;;;;;;;4998038;28;20072;-78
2022/05/08 04:49:21;;;;;;;15.43;3.78;;;;;;;;;;5015771;28;20061;-78
2022/05/08 04:51:48;;;;;;;18.90;3.72;;;;;;;;;;4994957;28;20153;-75
2022/05/08 04:54:14;;;;;;;19.55;3.63;;;;;;;;;;5015502;28;20066;-79
2022/05/08 04:56:41;;;;;;;19.17;3.88;;;;;;;;;;5015028;28;20106;-80
2022/05/08 04:59:07;;;;;;;17.65;3.45;;;;;;;;;;5017028;28;20505;-79
2022/05/08 05:01:35;;;;;;;19.92;3.78;;;;;;;;;;5029057;28;20058;-80
2022/05/08 05:04:01;;;;;;;18.58;3.70;;;;;;;;;;5005780;28;20097;-78
2022/05/08 05:06:27;;;;;;;17.52;3.53;;;;;;;;;;5006919;28;20161;-79
2022/05/08 05:08:54;;;;;;;19.35;4.03;;;;;;;;;;5013731;28;20054;-78
2022/05/08 05:11:20;;;;;;;13.15;3.50;;;;;;;;;;5005011;28;20743;-79
2022/05/08 05:13:46;;;;;;;30.85;4.68;;;;;;;;;;5008526;28;20505;-76
2022/05/08 05:16:13;;;;;;;13.30;3.55;;;;;;;;;;5007666;28;20504;-76
2022/05/08 05:18:39;;;;;;;20.15;3.70;;;;;;;;;;5003605;28;20058;-77
2022/05/08 05:21:06;;;;;;;16.05;3.35;;;;;;;;;;5005208;28;20050;-78
2022/05/08 05:23:35;;;;;;;14.52;3.63;;;;;;;;;;5016743;28;20054;-76
2022/05/08 05:26:03;;;;;;;15.32;3.22;;;;;;;;;;5011294;28;20050;-76
2022/05/08 05:28:30;;;;;;;15.85;3.90;;;;;;;;;;5019968;28;20145;-79
2022/05/08 05:30:57;;;;;;;16.15;4.40;;;;;;;;;;5006342;28;20086;-79
2022/05/08 05:33:23;;;;;;;20.15;4.55;;;;;;;;;;5003153;28;20058;-76
2022/05/08 05:35:50;;;;;;;18.30;3.70;;;;;;;;;;5002901;28;20050;-77
2022/05/08 05:38:16;;;;;;;22.10;3.92;;;;;;;;;;5000803;28;20519;-78
2022/05/08 05:40:43;;;;;;;18.73;4.03;;;;;;;;;;5011418;28;20539;-77
2022/05/08 05:43:09;;;;;;;16.55;3.88;;;;;;;;;;5013081;28;20125;-79
2022/05/08 05:45:35;;;;;;;20.73;3.55;;;;;;;;;;5009054;28;20589;-79
2022/05/08 05:48:02;;;;;;;19.38;4.00;;;;;;;;;;5004795;28;20520;-79
2022/05/08 05:50:28;;;;;;;18.63;3.85;;;;;;;;;;4988414;28;20113;-77
2022/05/08 05:52:54;;;;;;;16.52;3.33;;;;;;;;;;5017319;28;20784;-76
2022/05/08 05:55:21;;;;;;;16.92;3.90;;;;;;;;;;5011162;28;20148;-77
2022/05/08 05:57:47;;;;;;;19.23;3.20;;;;;;;;;;5028491;28;20060;-79
2022/05/08 06:00:14;;;;;;;13.18;3.47;;;;;;;;;;4999660;28;20060;-79
2022/05/08 06:02:43;;;;;;;12.85;3.30;;;;;;;;;;5012084;28;20060;-80
2022/05/08 06:05:10;;;;;;;15.43;3.60;;;;;;;;;;5014118;28;20061;-76
2022/05/08 06:07:37;;;;;;;21.05;3.13;;;;;;;;;;5006117;28;20133;-80
2022/05/08 06:10:06;;;;;;;17.23;3.30;;;;;;;;;;5009359;28;20166;-79
2022/05/08 06:12:32;;;;;;;16.63;2.78;;;;;;;;;;5011814;28;20089;-79
2022/05/08 06:14:59;;;;;;;21.27;3.88;;;;;;;;;;5006137;28;20054;-79
2022/05/08 06:17:25;;;;;;;15.95;3.22;;;;;;;;;;5010544;28;20064;-81
2022/05/08 06:19:52;;;;;;;15.23;3.15;;;;;;;;;;5024850;28;20061;-78
2022/05/08 06:22:18;;;;;;;15.75;2.90;;;;;;;;;;5001530;28;20050;-77
2022/05/08 06:24:45;;;;;;;14.98;3.22;;;;;;;;;;5003707;28;20058;-77
2022/05/08 06:27:11;;;;;;;12.95;2.80;;;;;;;;;;5014577;28;20065;-76
2022/05/08 06:29:39;;;;;;;13.18;3.20;;;;;;;;;;5030441;28;20111;-80
2022/05/08 06:32:05;;;;;;;10.80;2.85;;;;;;;;;;4990834;28;20062;-79
2022/05/08 06:34:33;;;;;;;19.35;2.92;;;;;;;;;;5015746;28;20085;-81
2022/05/08 06:36:59;;;;;;;16.55;2.78;;;;;;;;;;5013275;28;20051;-79
2022/05/08 06:39:26;;;;;;;15.85;2.90;;;;;;;;;;5024860;28;20148;-79
2022/05/08 06:41:52;;;;;;;15.25;2.70;;;;;;;;;;5024846;28;20109;-80
2022/05/08 06:44:18;;;;;;;16.08;2.90;;;;;;;;;;5025706;28;20057;-80
2022/05/08 06:46:45;;;;;;;19.67;2.80;;;;;;;;;;5010507;28;20840;-81
2022/05/08 06:49:11;;;;;;;16.25;3.45;;;;;;;;;;5012812;28;20062;-78
2022/05/08 06:51:38;;;;;;;14.07;3.30;;;;;;;;;;5005851;28;20102;-79
2022/05/08 06:54:04;;;;;;;14.07;2.80;;;;;;;;;;5015511;28;20874;-77
2022/05/08 06:56:34;;;;;;;12.68;3.13;;;;;;;;;;5009841;28;20133;-79
2022/05/08 07:01:47;;;;;;;13.70;2.25;;;;;;;;;;5002286;28;20046;-79
2022/05/08 07:04:14;;;;;;;13.25;2.53;;;;;;;;;;5017860;28;20123;-80
2022/05/08 07:06:40;;;;;;;13.55;2.25;;;;;;;;;;5018439;28;20058;-81
2022/05/08 07:09:13;;;;;;;10.88;2.53;;;;;;;;;;5007207;28;20058;-80
2022/05/08 07:11:41;;;;;;;10.40;2.50;;;;;;;;;;5004090;28;20109;-76
2022/05/08 07:14:07;;;;;;;11.52;2.83;;;;;;;;;;5006221;28;20149;-77
2022/05/08 07:16:34;;;;;;;13.60;2.67;;;;;;;;;;5007603;28;20054;-77
2022/05/08 07:19:00;;;;;;;13.00;2.50;;;;;;;;;;5016466;28;20096;-79
2022/05/08 07:21:27;;;;;;;11.98;2.60;;;;;;;;;;5006509;28;20068;-78
2022/05/08 07:23:55;;;;;;;12.10;2.13;;;;;;;;;;5013745;28;20042;-78
2022/05/08 07:26:21;;;;;;;9.85;2.25;;;;;;;;;;5010464;28;20086;-77
2022/05/08 07:28:48;;;;;;;10.43;2.13;;;;;;;;;;5006160;28;20547;-76
2022/05/08 07:31:15;;;;;;;12.57;2.40;;;;;;;;;;5005418;28;20068;-78
2022/05/08 07:33:41;;;;;;;10.18;2.20;;;;;;;;;;5028763;28;20101;-76
2022/05/08 07:36:13;;;;;;;13.85;2.30;;;;;;;;;;5023420;28;20050;-80
2022/05/08 07:38:44;;;;;;;9.05;1.85;;;;;;;;;;5002839;28;20058;-76
2022/05/08 07:41:10;;;;;;;;;;;;;;;;;;5005527;28;20061;-77
2022/05/08 07:43:37;;;;;;;12.35;2.40;;;;;;;;;;5003902;28;47025;-76
2022/05/08 07:46:04;;;;;;;11.82;2.10;;;;;;;;;;5015696;28;20081;-78
2022/05/08 07:48:30;;;;;;;9.90;2.45;;;;;;;;;;5006939;28;20093;-78
2022/05/08 07:50:59;;;;;;;11.07;2.38;;;;;;;;;;5015025;28;20933;-77
2022/05/08 07:53:26;;;;;;;10.18;2.20;;;;;;;;;;5010297;28;20245;-78
2022/05/08 07:55:53;;;;;;;11.25;2.28;;;;;;;;;;5007973;28;20054;-76
2022/05/08 07:58:20;;;;;;;9.75;1.92;;;;;;;;;;5006304;28;20518;-76
2022/05/08 08:00:47;;;;;;;8.40;1.90;;;;;;;;;;5011480;28;20084;-77
2022/05/08 08:03:14;;;;;;;9.38;2.60;;;;;;;;;;5021699;28;20532;-75
2022/05/08 08:05:40;;;;;;;11.43;2.63;;;;;;;;;;5011113;28;20137;-77
2022/05/08 08:08:26;;;;;;;8.52;2.20;;;;;;;;;;5000938;28;20054;-78
2022/05/08 08:10:56;;;;;;;14.13;2.50;;;;;;;;;;5005200;28;20101;-78
2022/05/08 08:13:24;;;;;;;8.35;2.30;;;;;;;;;;5008930;28;20055;-76
2022/05/08 08:15:50;;;;;;;9.95;2.60;;;;;;;;;;5007276;28;20097;-77
2022/05/08 08:18:18;;;;;;;8.40;2.70;;;;;;;;;;5010171;28;20050;-76
2022/05/08 08:20:45;;;;;;;13.95;2.28;;;;;;;;;;5010193;28;20050;-76
2022/05/08 08:23:12;;;;;;;11.27;2.25;;;;;;;;;;5011180;28;20077;-77
2022/05/08 08:25:38;;;;;;;11.43;2.45;;;;;;;;;;5011267;28;20141;-76
2022/05/08 08:28:04;;;;;;;11.13;1.90;;;;;;;;;;5013813;28;20056;-79
2022/05/08 08:30:31;;;;;;;12.52;2.75;;;;;;;;;;5011970;28;20078;-76
2022/05/08 08:32:57;;;;;;;15.23;2.55;;;;;;;;;;5018219;28;20058;-77
2022/05/08 08:35:24;;;;;;;9.93;2.03;;;;;;;;;;5015259;28;20376;-78
2022/05/08 08:37:50;;;;;;;13.63;2.33;;;;;;;;;;5011038;28;20051;-77
2022/05/08 08:40:25;;;;;;;14.63;2.58;;;;;;;;;;5012447;28;20153;-78
2022/05/08 08:42:51;;;;;;;10.82;2.10;;;;;;;;;;5011630;28;20101;-77
2022/05/08 08:48:03;;;;;;;12.18;2.58;;;;;;;;;;5008514;28;20057;-77
2022/05/08 08:50:29;;;;;;;12.98;2.40;;;;;;;;;;5025165;28;20054;-78
2022/05/08 08:52:57;;;;;;;11.98;2.50;;;;;;;;;;5005514;28;20054;-78
2022/05/08 08:55:24;;;;;;;8.85;2.30;;;;;;;;;;5005385;28;20125;-78
2022/05/08 08:57:51;;;;;;;9.73;2.53;;;;;;;;;;5012629;28;20054;-76
2022/05/08 09:00:18;;;;;;;13.65;2.50;;;;;;;;;;5011856;28;20513;-78
2022/05/08 09:02:47;;;;;;;9.48;2.33;;;;;;;;;;5012150;28;20066;-78
2022/05/08 09:05:14;;;;;;;11.65;2.40;;;;;;;;;;5017400;28;20055;-78
2022/05/08 09:07:45;;;;;;;9.27;2.13;;;;;;;;;;5009209;28;20150;-76
2022/05/08 09:10:16;;;;;;;11.70;2.58;;;;;;;;;;5010970;28;20042;-77
2022/05/08 09:13:02;;;;;;;10.05;2.35;;;;;;;;;;5011723;28;20050;-77
2022/05/08 09:15:36;;;;;;;9.38;1.95;;;;;;;;;;5013348;28;20320;-78
2022/05/08 09:18:07;;;;;;;9.90;2.72;;;;;;;;;;5014411;28;20954;-78
2022/05/08 09:20:34;;;;;;;11.65;2.28;;;;;;;;;;5018580;28;20101;-77
2022/05/08 09:23:00;;;;;;;9.93;2.80;;;;;;;;;;5012957;28;20105;-78
2022/05/08 09:25:45;;;;;;;7.38;1.98;;;;;;;;;;5030807;28;20105;-78
2022/05/08 09:28:31;;;;;;;9.70;2.08;;;;;;;;;;5010746;28;20309;-77
2022/05/08 09:31:14;;;;;;;9.38;2.03;;;;;;;;;;5011680;28;20031;-77
2022/05/08 09:33:44;;;;;;;7.90;2.10;;;;;;;;;;5007026;28;20109;-76
2022/05/08 09:36:18;;;;;;;10.43;2.20;;;;;;;;;;5019038;28;20598;-76
2022/05/08 09:38:45;;;;;;;8.43;2.50;;;;;;;;;;5010247;28;20998;-77
2022/05/08 09:41:12;;;;;;;9.80;2.30;;;;;;;;;;5008972;28;20141;-78
2022/05/08 09:43:40;;;;;;;7.82;2.22;;;;;;;;;;5016831;28;20054;-77
2022/05/08 09:46:07;;;;;;;10.93;2.42;;;;;;;;;;5008057;28;20050;-77
2022/05/08 09:48:33;;;;;;;9.13;2.13;;;;;;;;;;5018088;28;20060;-78
2022/05/08 09:51:02;;;;;;;11.00;2.28;;;;;;;;;;5008164;28;20867;-77
2022/05/08 09:53:29;;;;;;;13.95;2.30;;;;;;;;;;5015968;28;20787;-76
2022/05/08 09:55:56;;;;;;;11.70;2.22;;;;;;;;;;5016888;28;20161;-76
2022/05/08 09:58:23;;;;;;;9.45;2.53;;;;;;;;;;5007970;28;20054;-77
2022/05/08 10:00:51;;;;;;;9.10;2.15;;;;;;;;;;5010675;28;20050;-77
2022/05/08 10:03:18;;;;;;;6.72;2.03;;;;;;;;;;5004541;28;20056;-77
2022/05/08 10:05:45;;;;;;;11.68;2.45;;;;;;;;;;5006868;28;20050;-77
2022/05/08 10:08:12;;;;;;;9.73;2.28;;;;;;;;;;5008393;28;20501;-77
2022/05/08 10:13:53;;;;;;;6.70;2.40;;;;;;;;;;5003068;28;20050;-75
2022/05/08 10:16:38;;;;;;;7.30;2.20;;;;;;;;;;5001666;28;20125;-76
2022/05/08 10:19:17;;;;;;;8.45;2.15;;;;;;;;;;5013296;28;20697;-75
2022/05/08 10:21:53;;;;;;;9.82;2.40;;;;;;;;;;5000637;28;20133;-75
2022/05/08 10:24:28;;;;;;;6.03;2.17;;;;;;;;;;5015040;28;20063;-75
2022/05/08 10:27:21;;;;;;;7.95;2.17;;;;;;;;;;5001529;28;20055;-76
2022/05/08 10:29:49;;;;;;;6.78;2.03;;;;;;;;;;4991710;28;20093;-75
2022/05/08 10:32:34;;;;;;;10.02;2.55;;;;;;;;;;5000628;28;20259;-76
2022/05/08 10:35:07;;;;;;;12.35;2.20;;;;;;;;;;5009636;28;20058;-76
2022/05/08 10:37:34;;;;;;;6.97;1.85;;;;;;;;;;5020149;28;20162;-76
2022/05/08 10:40:01;;;;;;;6.38;1.98;;;;;;;;;;5013112;28;20050;-76
2022/05/08 10:42:33;;;;;;;6.72;2.05;;;;;;;;;;5001652;28;20054;-76
2022/05/08 10:45:02;;;;;;;8.02;1.88;;;;;;;;;;5001462;28;20062;-76
2022/05/08 10:47:34;;;;;;;7.22;1.88;;;;;;;;;;4996619;28;20571;-76
2022/05/08 10:50:01;;;;;;;7.05;2.42;;;;;;;;;;5016052;28;20050;-75
2022/05/08 10:52:31;;;;;;;8.07;2.08;;;;;;;;;;4999692;28;20073;-76
2022/05/08 10:55:00;;;;;;;8.13;2.03;;;;;;;;;;5001206;28;20082;-76
2022/05/08 10:57:34;;;;;;;6.15;1.80;;;;;;;;;;5007774;28;20582;-77
2022/05/08 11:00:01;;;;;;;7.43;2.08;;;;;;;;;;4995794;28;20058;-77
2022/05/08 11:02:48;;;;;;;7.75;1.70;;;;;;;;;;5000895;28;20488;-76
2022/05/08 11:05:18;;;;;;;7.28;1.90;;;;;;;;;;4995807;28;20047;-76
2022/05/08 11:07:52;;;;;;;7.95;1.80;;;;;;;;;;5002833;28;20619;-76
2022/05/08 11:10:21;;;;;;;10.02;2.03;;;;;;;;;;4998723;28;20065;-76
2022/05/08 11:12:55;;;;;;;8.27;1.63;;;;;;;;;;5001330;28;20146;-76
2022/05/08 11:15:22;;;;;;;6.78;1.80;;;;;;;;;;5002622;28;20070;-77
2022/05/08 11:18:01;;;;;;;8.40;2.00;;;;;;;;;;5007429;28;20050;-76
2022/05/08 11:20:31;;;;;;;8.05;2.10;;;;;;;;;;5008222;28;20045;-77
2022/05/08 11:22:58;;;;;;;7.13;1.75;;;;;;;;;;5006576;28;20149;-79
2022/05/08 11:25:37;;;;;;;6.32;2.05;;;;;;;;;;5011240;28;20050;-78
2022/05/08 11:28:11;;;;;;;8.43;1.98;;;;;;;;;;5008498;28;20109;-78
2022/05/08 11:30:46;;;;;;;9.32;2.03;;;;;;;;;;4996562;28;20054;-77
2022/05/08 11:36:06;;;;;;;7.03;1.73;;;;;;;;;;5005997;28;20082;-77
2022/05/08 11:39:05;;;;;;;6.90;2.10;;;;;;;;;;5008180;28;20058;-78
2022/05/08 11:41:31;;;;;;;6.97;2.03;;;;;;;;;;4984578;28;20141;-76
2022/05/08 11:44:02;;;;;;;5.80;1.70;;;;;;;;;;5005363;28;20133;-76
2022/05/08 11:46:32;;;;;;;6.20;1.80;;;;;;;;;;4999022;28;20062;-76
2022/05/08 11:48:59;;;;;;;5.38;1.55;;;;;;;;;;5012203;28;20628;-76
2022/05/08 11:51:37;;;;;;;5.72;1.60;;;;;;;;;;5001894;28;20121;-77
2022/05/08 11:54:03;;;;;;;10.13;2.15;;;;;;;;;;4998533;28;20055;-77
2022/05/08 11:56:33;;;;;;;7.07;1.83;;;;;;;;;;5004763;28;20583;-76
2022/05/08 11:59:00;;;;;;;5.63;1.42;;;;;;;;;;5004955;28;20057;-77
2022/05/08 12:01:30;;;;;;;7.47;1.70;;;;;;;;;;5004471;28;20138;-77
2022/05/08 12:04:15;;;;;;;6.63;1.70;;;;;;;;;;5003275;28;20509;-77
2022/05/08 12:06:54;;;;;;;8.85;2.00;;;;;;;;;;5030592;28;20064;-76
2022/05/08 12:09:20;;;;;;;8.18;1.67;;;;;;;;;;5002933;28;20050;-76
2022/05/08 12:11:47;;;;;;;7.90;1.98;;;;;;;;;;5003523;28;20491;-77
2022/05/08 12:14:13;;;;;;;7.15;1.70;;;;;;;;;;5004062;28;20057;-76
2022/05/08 12:16:57;;;;;;;7.38;1.92;;;;;;;;;;5000857;28;20225;-77
2022/05/08 12:19:24;;;;;;;7.25;1.77;;;;;;;;;;5006385;28;20061;-77
2022/05/08 12:21:50;;;;;;;6.93;1.75;;;;;;;;;;5001373;28;20050;-76
2022/05/08 12:24:17;;;;;;;9.55;1.95;;;;;;;;;;5004696;28;20064;-77
2022/05/08 12:26:44;;;;;;;8.68;2.03;;;;;;;;;;5003595;28;20109;-76
2022/05/08 12:29:17;;;;;;;4.72;1.73;;;;;;;;;;5006703;28;20474;-77
2022/05/08 12:31:44;;;;;;;6.95;1.85;;;;;;;;;;5003809;28;20133;-77
2022/05/08 12:34:12;;;;;;;6.00;1.80;;;;;;;;;;5002999;28;20141;-77
2022/05/08 12:36:40;;;;;;;5.47;1.83;;;;;;;;;;5005337;28;20054;-76
2022/05/08 12:39:07;;;;;;;7.97;2.22;;;;;;;;;;5001891;28;20055;-77
2022/05/08 12:41:37;;;;;;;5.13;1.67;;;;;;;;;;5003888;28;20046;-76
2022/05/08 12:44:03;;;;;;;;;;;;;;;;;;5004694;28;21138;-77
2022/05/08 12:46:30;;;;;;;4.35;1.50;;;;;;;;;;5015129;28;48023;-76
2022/05/08 12:49:02;;;;;;;6.80;1.55;;;;;;;;;;5003027;28;20081;-76
2022/05/08 12:51:33;;;;;;;6.45;1.70;;;;;;;;;;5003799;28;20181;-77
2022/05/08 12:54:01;;;;;;;6.25;1.80;;;;;;;;;;5000127;28;20062;-76
2022/05/08 12:56:31;;;;;;;9.18;1.88;;;;;;;;;;5008350;28;20152;-76
2022/05/08 13:01:43;;;;;;;7.05;1.90;;;;;;;;;;5002282;28;20050;-76
2022/05/08 13:04:09;;;;;;;5.88;1.58;;;;;;;;;;5005775;28;20061;-76
2022/05/08 13:06:36;;;;;;;7.22;1.70;;;;;;;;;;5000433;28;20508;-75
2022/05/08 13:09:02;;;;;;;6.07;2.00;;;;;;;;;;5003146;28;20130;-76
2022/05/08 13:11:37;;;;;;;7.43;1.90;;;;;;;;;;5009584;28;20050;-76
2022/05/08 13:14:06;;;;;;;8.63;1.60;;;;;;;;;;4990931;28;20550;-75
2022/05/08 13:16:32;;;;;;;7.10;1.70;;;;;;;;;;5006019;28;20060;-77
2022/05/08 13:19:00;;;;;;;6.07;1.60;;;;;;;;;;5001235;28;20058;-77
2022/05/08 13:21:28;;;;;;;6.95;1.85;;;;;;;;;;5006248;28;20125;-76
2022/05/08 13:23:54;;;;;;;6.43;1.85;;;;;;;;;;5019686;28;20089;-76
2022/05/08 13:26:21;;;;;;;5.15;1.80;;;;;;;;;;5005692;28;20054;-75
2022/05/08 13:28:47;;;;;;;6.07;1.85;;;;;;;;;;5020129;28;20055;-76
2022/05/08 13:31:14;;;;;;;8.88;2.00;;;;;;;;;;4994337;28;20993;-77
2022/05/08 13:33:40;;;;;;;6.88;2.28;;;;;;;;;;5018242;28;20054;-77
2022/05/08 13:36:07;;;;;;;6.78;1.77;;;;;;;;;;5001535;28;20085;-77
2022/05/08 13:38:34;;;;;;;6.95;2.05;;;;;;;;;;5003950;28;20078;-77
2022/05/08 13:41:01;;;;;;;7.70;2.17;;;;;;;;;;5018627;28;20057;-76
2022/05/08 13:43:28;;;;;;;8.80;2.20;;;;;;;;;;5002938;28;20081;-76
2022/05/08 13:45:54;;;;;;;7.35;1.70;;;;;;;;;;5003022;28;20058;-76
2022/05/08 13:48:21;;;;;;;6.95;2.00;;;;;;;;;;5010171;28;20518;-76
2022/05/08 13:50:48;;;;;;;7.15;2.05;;;;;;;;;;4998953;28;20932;-77
2022/05/08 13:53:15;;;;;;;6.13;1.67;;;;;;;;;;4999478;28;20060;-76
2022/05/08 13:55:44;;;;;;;7.63;2.10;;;;;;;;;;4998592;28;20527;-76
2022/05/08 13:58:11;;;;;;;7.78;1.90;;;;;;;;;;4994851;28;20051;-76
2022/05/08 14:00:38;;;;;;;8.75;2.33;;;;;;;;;;4997268;28;20142;-76
2022/05/08 14:03:07;;;;;;;7.70;1.80;;;;;;;;;;4999272;28;20509;-76
2022/05/08 14:05:33;;;;;;;5.63;2.10;;;;;;;;;;5002432;28;20052;-76
2022/05/08 14:08:00;;;;;;;8.38;2.17;;;;;;;;;;5001335;28;20054;-76
2022/05/08 14:10:26;;;;;;;6.57;1.90;;;;;;;;;;5003209;28;20061;-76
2022/05/08 14:12:53;;;;;;;5.50;1.80;;;;;;;;;;5001142;28;20105;-76
2022/05/08 14:15:21;;;;;;;7.78;1.60;;;;;;;;;;5001527;28;21225;-76
2022/05/08 14:17:48;;;;;;;6.80;1.85;;;;;;;;;;5017382;28;20054;-76
2022/05/08 14:20:15;;;;;;;5.13;1.70;;;;;;;;;;5003598;28;20656;-76
2022/05/08 14:22:42;;;;;;;12.77;6.78;;;;;;;;;;5001586;28;20062;-76
2022/05/08 14:25:08;;;;;;;6.93;2.60;;;;;;;;;;5002544;28;20089;-76
2022/05/08 14:27:35;;;;;;;7.03;2.67;;;;;;;;;;5001417;28;20050;-76
2022/05/08 14:30:03;;;;;;;10.15;4.63;;;;;;;;;;5003473;28;20141;-76
2022/05/08 14:37:59;;;;;;;10.63;3.72;;;;;;;;;;5002242;28;20113;-76
2022/05/08 14:40:28;;;;;;;11.02;3.67;;;;;;;;;;5002382;28;20177;-77
2022/05/08 14:42:55;;;;;;;6.95;2.85;;;;;;;;;;5002999;28;20054;-77
2022/05/08 14:45:21;;;;;;;7.25;2.45;;;;;;;;;;5002491;28;20065;-77
2022/05/08 14:47:48;;;;;;;6.88;1.88;;;;;;;;;;5010492;28;20548;-77
2022/05/08 14:50:14;;;;;;;5.60;1.90;;;;;;;;;;5002710;28;20113;-77
2022/05/08 14:52:41;;;;;;;6.05;1.70;;;;;;;;;;5013250;28;20054;-77
2022/05/08 14:55:07;;;;;;;5.20;1.75;;;;;;;;;;5012373;28;20440;-77
2022/05/08 14:57:34;;;;;;;6.72;2.33;;;;;;;;;;5004097;28;20065;-77
2022/05/08 15:00:00;;;;;;;9.07;2.72;;;;;;;;;;5020464;28;20057;-77
2022/05/08 15:02:27;;;;;;;6.68;2.38;;;;;;;;;;5025216;28;20514;-77
2022/05/08 15:04:55;;;;;;;6.40;1.80;;;;;;;;;;5001519;28;20137;-77
2022/05/08 15:07:21;;;;;;;5.55;1.55;;;;;;;;;;5002189;28;20128;-77
2022/05/08 15:09:47;;;;;;;5.47;1.65;;;;;;;;;;5011810;28;20057;-77
2022/05/08 15:12:15;;;;;;;6.70;1.85;;;;;;;;;;5004691;28;20547;-77